Time;durP1;ratioP1;P1;durP2;ratioP2;P2;SDS_P1;SDS_P2;PMS_P1;PMS_P2;Temp;Humidity;BMP_temperature;BMP_pressure;BME280_temperature;BME280_humidity;BME280_pressure;Samples;Min_cycle;Max_cycle;Signal;HPM_P1;HPM_P2
2021/12/29 00:00:24;;;;;;;;;;;;;;;13.93;64.70;99633.13;1033552;28;934;-58
2021/12/29 00:01:14;;;;;;;;;;;;;;;13.93;64.69;99633.13;1033651;28;697;-58
2021/12/29 00:02:04;;;;;;;;;;;;;;;13.93;64.76;99630.44;1033682;28;694;-58
2021/12/29 00:02:55;;;;;;;;;;;;;;;13.90;64.60;99634.25;1033508;28;891;-59
2021/12/29 00:03:45;;;;;;;;;;;;;;;13.90;64.70;99634.25;1036584;28;2427;-58
2021/12/29 00:04:36;;;;;;;;;;;;;;;13.91;64.59;99640.47;1037471;28;990;-58
2021/12/29 00:05:26;;;;;;;;;;;;;;;13.91;64.45;99637.78;1037627;28;697;-59
2021/12/29 00:06:17;;;;;;;;;;;;;;;13.92;64.65;99639.47;1037431;28;850;-58
2021/12/29 00:07:10;;;;;;;;;;;;;;;13.93;65.13;99643.00;1037754;28;766;-58
2021/12/29 00:08:00;;;;;;;;;;;;;;;13.93;64.60;99649.19;1037866;28;723;-58
2021/12/29 00:08:51;;;;;;;;;;;;;;;13.92;65.24;99652.84;1037600;28;851;-58
2021/12/29 00:09:41;;;;;;;;;;;;;;;13.90;65.23;99649.47;1037609;28;1129;-58
2021/12/29 00:10:32;;;;;;;;;;;;;;;13.90;65.21;99658.34;1037750;28;697;-58
2021/12/29 00:11:22;;;;;;;;;;;;;;;13.90;65.05;99663.72;1037739;28;701;-59
2021/12/29 00:12:15;;;;;;;;;;;;;;;13.89;64.72;99664.72;1038241;28;711;-59
2021/12/29 00:13:06;;;;;;;;;;;;;;;13.89;64.65;99667.38;1037662;28;872;-58
2021/12/29 00:13:58;;;;;;;;;;;;;;;13.89;64.83;99674.56;1037634;28;743;-59
2021/12/29 00:14:48;;;;;;;;;;;;;;;13.89;65.37;99677.25;1037602;28;1882;-59
2021/12/29 00:15:39;;;;;;;;;;;;;;;13.87;65.01;99672.03;1037582;28;669;-58
2021/12/29 00:16:34;;;;;;;;;;;;;;;13.87;65.37;99671.19;1037698;28;625;-57
2021/12/29 00:17:24;;;;;;;;;;;;;;;13.85;64.68;99679.38;1037627;28;761;-59
2021/12/29 00:18:15;;;;;;;;;;;;;;;13.85;64.56;99682.06;1034971;28;1960;-59
2021/12/29 00:19:05;;;;;;;;;;;;;;;13.84;65.19;99690.25;1037246;28;1873;-59
2021/12/29 00:19:56;;;;;;;;;;;;;;;13.84;64.66;99691.09;1038290;28;728;-58
2021/12/29 00:20:46;;;;;;;;;;;;;;;13.86;65.26;99699.81;1037635;28;740;-59
2021/12/29 00:21:37;;;;;;;;;;;;;;;13.88;64.52;99694.31;1034207;28;775;-58
2021/12/29 00:22:27;;;;;;;;;;;;;;;13.86;64.57;99699.81;1033485;28;773;-58
2021/12/29 00:23:17;;;;;;;;;;;;;;;13.85;64.55;99694.59;1033545;28;862;-58
2021/12/29 00:24:08;;;;;;;;;;;;;;;13.86;64.68;99696.28;1033522;28;794;-59
2021/12/29 00:24:58;;;;;;;;;;;;;;;13.85;64.53;99699.97;1033680;28;720;-57
2021/12/29 00:25:49;;;;;;;;;;;;;;;13.84;65.44;99707.16;1033534;28;718;-56
2021/12/29 00:26:39;;;;;;;;;;;;;;;13.85;64.82;99699.97;1033454;28;625;-57
2021/12/29 00:27:30;;;;;;;;;;;;;;;13.86;64.75;99705.16;1033583;28;708;-57
2021/12/29 00:28:20;;;;;;;;;;;;;;;13.85;64.95;99705.31;1033476;28;669;-57
2021/12/29 00:29:10;;;;;;;;;;;;;;;13.83;65.36;99716.16;1033724;28;726;-57
2021/12/29 00:30:01;;;;;;;;;;;;;;;13.82;64.80;99706.44;1033529;28;681;-57
2021/12/29 00:30:51;;;;;;;;;;;;;;;13.81;64.70;99709.28;1033555;28;729;-56
2021/12/29 00:31:42;;;;;;;;;;;;;;;13.81;64.85;99718.16;1033417;28;772;-57
2021/12/29 00:32:32;;;;;;;;;;;;;;;13.82;64.65;99717.16;1033394;28;714;-57
2021/12/29 00:33:22;;;;;;;;;;;;;;;13.83;64.73;99729.56;1033629;28;685;-57
2021/12/29 00:34:13;;;;;;;;;;;;;;;13.83;64.94;99728.72;1033453;28;701;-58
2021/12/29 00:35:03;;;;;;;;;;;;;;;13.82;65.01;99729.72;1033489;28;719;-58
2021/12/29 00:35:54;;;;;;;;;;;;;;;13.81;64.75;99728.03;1033549;28;786;-57
2021/12/29 00:36:44;;;;;;;;;;;;;;;13.81;65.65;99736.06;1033532;28;673;-57
2021/12/29 00:37:35;;;;;;;;;;;;;;;13.79;65.57;99732.72;1033669;28;722;-57
2021/12/29 00:38:25;;;;;;;;;;;;;;;13.79;64.66;99735.38;1033353;28;654;-57
2021/12/29 00:39:15;;;;;;;;;;;;;;;13.79;65.62;99732.72;1033437;28;979;-57
2021/12/29 00:40:06;;;;;;;;;;;;;;;13.78;65.49;99741.72;1033506;28;826;-57
2021/12/29 00:40:56;;;;;;;;;;;;;;;13.78;64.80;99731.03;1033528;28;781;-57
2021/12/29 00:41:46;;;;;;;;;;;;;;;13.78;64.75;99737.22;1033521;28;1019;-57
2021/12/29 00:42:38;;;;;;;;;;;;;;;13.81;64.75;99744.09;1033443;28;651;-57
2021/12/29 00:43:28;;;;;;;;;;;;;;;13.79;65.42;99736.19;1033525;28;690;-57
2021/12/29 00:44:19;;;;;;;;;;;;;;;13.79;65.31;99743.41;1033583;28;812;-57
2021/12/29 00:45:09;;;;;;;;;;;;;;;13.79;65.42;99738.06;1033561;28;726;-56
2021/12/29 00:45:59;;;;;;;;;;;;;;;13.78;65.06;99747.09;1033550;28;783;-57
2021/12/29 00:46:53;;;;;;;;;;;;;;;13.77;64.80;99759.63;1033380;28;723;-56
2021/12/29 00:47:44;;;;;;;;;;;;;;;13.78;65.28;99757.78;1033549;28;688;-57
2021/12/29 00:48:38;;;;;;;;;;;;;;;13.77;65.04;99759.63;1033450;28;837;-56
2021/12/29 00:49:34;;;;;;;;;;;;;;;13.76;65.32;99755.25;1033580;28;650;-56
2021/12/29 00:50:24;;;;;;;;;;;;;;;13.77;64.92;99756.09;1033314;28;2090;-57
2021/12/29 00:51:15;;;;;;;;;;;;;;;13.77;65.42;99762.31;1033947;28;724;-58
2021/12/29 00:52:06;;;;;;;;;;;;;;;13.79;64.71;99770.19;1033521;28;728;-56
2021/12/29 00:52:56;;;;;;;;;;;;;;;13.80;65.27;99766.50;1037130;28;1841;-59
2021/12/29 00:53:46;;;;;;;;;;;;;;;13.81;64.87;99762.84;1037588;28;741;-59
2021/12/29 00:54:37;;;;;;;;;;;;;;;13.83;65.31;99768.88;1037027;28;1918;-59
2021/12/29 00:55:27;;;;;;;;;;;;;;;13.82;65.12;99770.72;1037490;28;643;-59
2021/12/29 00:56:18;;;;;;;;;;;;;;;13.82;64.53;99764.53;1037537;28;710;-59
2021/12/29 00:57:08;;;;;;;;;;;;;;;13.82;64.51;99769.88;1037463;28;716;-59
2021/12/29 00:57:58;;;;;;;;;;;;;;;13.83;64.53;99766.22;1037632;28;750;-58
2021/12/29 00:58:49;;;;;;;;;;;;;;;13.84;65.20;99774.09;1037404;28;820;-59
2021/12/29 00:59:39;;;;;;;;;;;;;;;13.85;65.03;99780.31;1037381;28;610;-58
2021/12/29 01:00:30;;;;;;;;;;;;;;;13.83;64.68;99776.91;1037482;28;646;-57
2021/12/29 01:01:20;;;;;;;;;;;;;;;13.81;64.61;99781.56;1033872;28;707;-57
2021/12/29 01:02:11;;;;;;;;;;;;;;;13.80;65.37;99772.69;1033502;28;714;-57
2021/12/29 01:03:02;;;;;;;;;;;;;;;13.79;65.49;99781.72;1033388;28;700;-57
2021/12/29 01:03:52;;;;;;;;;;;;;;;13.78;65.60;99784.56;1037644;28;1352;-58
2021/12/29 01:04:43;;;;;;;;;;;;;;;13.78;65.64;99789.94;1037452;28;705;-58
2021/12/29 01:05:33;;;;;;;;;;;;;;;13.78;65.32;99780.06;1037372;28;714;-57
2021/12/29 01:06:24;;;;;;;;;;;;;;;13.80;65.02;99787.91;1037514;28;661;-57
2021/12/29 01:07:14;;;;;;;;;;;;;;;13.79;64.65;99799.66;1036858;28;784;-58
2021/12/29 01:08:04;;;;;;;;;;;;;;;13.79;65.48;99794.28;1037103;28;688;-57
2021/12/29 01:08:55;;;;;;;;;;;;;;;13.80;64.89;99799.47;1037402;28;752;-58
2021/12/29 01:09:45;;;;;;;;;;;;;;;13.80;65.33;99793.28;1037418;28;760;-58
2021/12/29 01:10:36;;;;;;;;;;;;;;;13.79;64.82;99803.13;1037461;28;622;-57
2021/12/29 01:11:26;;;;;;;;;;;;;;;13.78;64.96;99798.81;1037496;28;835;-57
2021/12/29 01:12:17;;;;;;;;;;;;;;;13.78;64.86;99811.34;1037374;28;755;-57
2021/12/29 01:13:08;;;;;;;;;;;;;;;13.77;65.19;99815.84;1037416;28;759;-57
2021/12/29 01:13:58;;;;;;;;;;;;;;;13.76;64.85;99819.53;1036568;28;705;-57
2021/12/29 01:14:52;;;;;;;;;;;;;;;13.77;65.07;99818.53;1036641;28;1894;-58
2021/12/29 01:16:15;;;;;;;;;;;;;;;13.78;65.61;99820.22;1036785;28;1855;-57
2021/12/29 01:17:06;;;;;;;;;;;;;;;13.78;64.61;99825.59;1038005;28;721;-58
2021/12/29 01:17:56;;;;;;;;;;;;;;;13.80;64.75;99836.13;1037307;28;873;-57
2021/12/29 01:18:47;;;;;;;;;;;;;;;13.80;64.87;99830.75;1037442;28;800;-58
2021/12/29 01:19:37;;;;;;;;;;;;;;;13.82;64.79;99839.50;1037342;28;881;-57
2021/12/29 01:20:27;;;;;;;;;;;;;;;13.83;64.86;99843.88;1037416;28;669;-57
2021/12/29 01:21:18;;;;;;;;;;;;;;;13.82;64.76;99845.69;1037877;28;1521;-58
2021/12/29 01:22:08;;;;;;;;;;;;;;;13.80;65.17;99846.81;1036877;28;867;-58
2021/12/29 01:22:59;;;;;;;;;;;;;;;13.81;64.98;99844.00;1037006;28;680;-58
2021/12/29 01:23:49;;;;;;;;;;;;;;;13.80;64.87;99852.19;1036777;28;844;-58
2021/12/29 01:24:40;;;;;;;;;;;;;;;13.81;65.07;99860.06;1036903;28;1496;-58
2021/12/29 01:25:30;;;;;;;;;;;;;;;13.82;65.52;99851.06;1036880;28;757;-58
2021/12/29 01:26:21;;;;;;;;;;;;;;;13.82;64.63;99852.88;1036906;28;630;-58
2021/12/29 01:27:12;;;;;;;;;;;;;;;13.81;65.49;99846.69;1036787;28;757;-59
2021/12/29 01:28:02;;;;;;;;;;;;;;;13.80;65.19;99849.50;1036862;28;759;-58
2021/12/29 01:28:53;;;;;;;;;;;;;;;13.78;65.65;99854.19;1036936;28;718;-58
2021/12/29 01:29:43;;;;;;;;;;;;;;;13.77;64.92;99855.19;1036772;28;634;-58
2021/12/29 01:30:33;;;;;;;;;;;;;;;13.76;64.93;99856.16;1036638;28;1823;-59
2021/12/29 01:31:24;;;;;;;;;;;;;;;13.77;65.03;99860.53;1033299;28;725;-58
2021/12/29 01:32:14;;;;;;;;;;;;;;;13.76;65.47;99870.41;1034472;28;768;-59
2021/12/29 01:33:06;;;;;;;;;;;;;;;13.76;65.58;99856.16;1034410;28;760;-58
2021/12/29 01:33:56;;;;;;;;;;;;;;;13.77;65.30;99863.22;1034400;28;816;-59
2021/12/29 01:34:47;;;;;;;;;;;;;;;13.77;65.58;99871.25;1034363;28;1906;-58
2021/12/29 01:35:37;;;;;;;;;;;;;;;13.78;65.57;99867.56;1033946;28;650;-58
2021/12/29 01:36:28;;;;;;;;;;;;;;;13.76;65.15;99861.53;1034405;28;899;-58
2021/12/29 01:37:18;;;;;;;;;;;;;;;13.77;65.29;99866.75;1034558;28;781;-58
2021/12/29 01:38:09;;;;;;;;;;;;;;;13.78;65.09;99863.06;1034375;28;745;-58
2021/12/29 01:38:59;;;;;;;;;;;;;;;13.78;65.62;99867.56;1034439;28;764;-59
2021/12/29 01:39:49;;;;;;;;;;;;;;;13.79;65.28;99877.31;1034283;28;780;-59
2021/12/29 01:40:40;;;;;;;;;;;;;;;13.79;65.56;99870.09;1033682;28;1010;-58
2021/12/29 01:41:30;;;;;;;;;;;;;;;13.80;65.58;99860.22;1033786;28;1024;-58
2021/12/29 01:42:21;;;;;;;;;;;;;;;13.80;65.44;99862.91;1033827;28;555;-58
2021/12/29 01:43:11;;;;;;;;;;;;;;;13.79;65.64;99867.41;1034065;28;720;-59
2021/12/29 01:44:01;;;;;;;;;;;;;;;13.81;64.91;99865.44;1033097;28;786;-59
2021/12/29 01:44:52;;;;;;;;;;;;;;;13.80;64.92;99874.44;1033278;28;872;-58
2021/12/29 01:45:42;;;;;;;;;;;;;;;13.79;64.63;99872.75;1035767;28;1904;-58
2021/12/29 01:46:33;;;;;;;;;;;;;;;13.80;64.68;99873.59;1037260;28;1357;-58
2021/12/29 01:47:23;;;;;;;;;;;;;;;13.80;65.22;99873.59;1037248;28;750;-58
2021/12/29 01:48:15;;;;;;;;;;;;;;;13.79;65.43;99875.44;1037384;28;683;-58
2021/12/29 01:49:06;;;;;;;;;;;;;;;13.80;65.52;99882.50;1037749;28;849;-59
2021/12/29 01:49:56;;;;;;;;;;;;;;;13.80;64.83;99879.81;1037287;28;815;-58
2021/12/29 01:50:51;;;;;;;;;;;;;;;13.80;65.60;99878.97;1034147;28;791;-59
2021/12/29 01:51:48;;;;;;;;;;;;;;;13.81;64.73;99880.66;1034091;28;673;-58
2021/12/29 01:52:40;;;;;;;;;;;;;;;13.81;65.58;99881.50;1037899;28;653;-58
2021/12/29 01:53:32;;;;;;;;;;;;;;;13.79;65.53;99882.66;1034160;28;645;-58
2021/12/29 01:54:25;;;;;;;;;;;;;;;13.80;65.26;99889.69;1033851;28;1384;-58
2021/12/29 01:55:15;;;;;;;;;;;;;;;13.79;64.73;99888.00;1037763;28;906;-58
2021/12/29 01:56:06;;;;;;;;;;;;;;;13.78;65.60;99887.16;1037262;28;780;-58
2021/12/29 01:56:56;;;;;;;;;;;;;;;13.78;65.45;99881.81;1037241;28;735;-58
2021/12/29 01:57:47;;;;;;;;;;;;;;;13.77;65.52;99888.16;1037435;28;713;-59
2021/12/29 01:58:37;;;;;;;;;;;;;;;13.76;65.62;99888.28;1037336;28;594;-58
2021/12/29 01:59:28;;;;;;;;;;;;;;;13.77;65.00;99888.16;1037175;28;837;-58
2021/12/29 02:00:18;;;;;;;;;;;;;;;13.78;65.05;99891.69;1037911;28;668;-58
2021/12/29 02:01:08;;;;;;;;;;;;;;;13.79;64.95;99890.69;1033749;28;744;-58
2021/12/29 02:01:59;;;;;;;;;;;;;;;13.80;64.98;99895.88;1033280;28;717;-58
2021/12/29 02:02:49;;;;;;;;;;;;;;;13.80;65.50;99895.88;1033090;28;1855;-58
2021/12/29 02:03:40;;;;;;;;;;;;;;;13.80;65.48;99901.22;1033294;28;833;-59
2021/12/29 02:04:30;;;;;;;;;;;;;;;13.81;65.30;99908.28;1033153;28;642;-58
2021/12/29 02:05:21;;;;;;;;;;;;;;;13.80;64.82;99908.41;1033321;28;657;-58
2021/12/29 02:06:11;;;;;;;;;;;;;;;13.80;65.42;99908.41;1033127;28;708;-58
2021/12/29 02:07:01;;;;;;;;;;;;;;;13.80;64.85;99900.38;1033243;28;744;-58
2021/12/29 02:07:52;;;;;;;;;;;;;;;13.80;65.85;99906.59;1033236;28;900;-57
2021/12/29 02:08:42;;;;;;;;;;;;;;;13.81;65.40;99912.78;1033201;28;723;-58
2021/12/29 02:09:33;;;;;;;;;;;;;;;13.80;65.09;99916.44;1033138;28;1025;-58
2021/12/29 02:10:24;;;;;;;;;;;;;;;13.80;65.40;99911.94;1033159;28;606;-59
2021/12/29 02:11:16;;;;;;;;;;;;;;;13.81;65.24;99910.13;1033244;28;1069;-59
2021/12/29 02:12:06;;;;;;;;;;;;;;;13.80;65.74;99913.78;1033009;28;865;-59
2021/12/29 02:12:56;;;;;;;;;;;;;;;13.80;64.88;99911.09;1033213;28;839;-58
2021/12/29 02:13:47;;;;;;;;;;;;;;;13.80;65.71;99914.63;1033177;28;870;-58
2021/12/29 02:14:37;;;;;;;;;;;;;;;13.82;65.68;99917.16;1033097;28;1984;-58
2021/12/29 02:15:28;;;;;;;;;;;;;;;13.81;64.73;99919.00;1033213;28;751;-58
2021/12/29 02:16:18;;;;;;;;;;;;;;;13.81;65.10;99913.63;1033171;28;866;-59
2021/12/29 02:17:08;;;;;;;;;;;;;;;13.81;65.70;99923.50;1033147;28;772;-58
2021/12/29 02:17:59;;;;;;;;;;;;;;;13.79;65.86;99920.97;1033690;28;732;-59
2021/12/29 02:18:49;;;;;;;;;;;;;;;13.81;65.51;99928.84;1033036;28;729;-59
2021/12/29 02:19:45;;;;;;;;;;;;;;;13.81;65.32;99923.50;1032195;28;685;-58
2021/12/29 02:20:35;;;;;;;;;;;;;;;13.81;65.39;99923.50;1032540;28;634;-59
2021/12/29 02:21:26;;;;;;;;;;;;;;;13.81;65.68;99927.03;1032660;28;680;-59
2021/12/29 02:22:39;;;;;;;;;;;;;;;13.82;65.33;99933.22;1033033;28;856;-58
2021/12/29 02:23:46;;;;;;;;;;;;;;;13.81;65.76;99935.06;1033119;28;756;-58
2021/12/29 02:24:42;;;;;;;;;;;;;;;13.83;65.85;99934.91;1033017;28;1449;-57
2021/12/29 02:25:46;;;;;;;;;;;;;;;13.83;65.26;99929.56;1033216;28;749;-57
2021/12/29 02:26:37;;;;;;;;;;;;;;;13.82;65.40;99930.53;1033041;28;933;-57
2021/12/29 02:27:28;;;;;;;;;;;;;;;13.82;65.97;99930.53;1033279;28;708;-57
2021/12/29 02:28:18;;;;;;;;;;;;;;;13.82;65.61;99943.94;1033116;28;654;-57
2021/12/29 02:29:09;;;;;;;;;;;;;;;13.81;65.60;99935.06;1033570;28;1932;-58
2021/12/29 02:29:59;;;;;;;;;;;;;;;13.80;65.75;99932.53;1033692;28;774;-57
2021/12/29 02:30:49;;;;;;;;;;;;;;;13.80;65.32;99932.53;1033018;28;863;-57
2021/12/29 02:31:40;;;;;;;;;;;;;;;13.80;65.39;99937.88;1033020;28;923;-58
2021/12/29 02:32:30;;;;;;;;;;;;;;;13.80;65.92;99937.88;1032894;28;689;-58
2021/12/29 02:33:21;;;;;;;;;;;;;;;13.78;65.62;99940.72;1033194;28;701;-57
2021/12/29 02:34:11;;;;;;;;;;;;;;;13.78;65.89;99932.69;1033169;28;819;-57
2021/12/29 02:35:02;;;;;;;;;;;;;;;13.79;65.20;99934.34;1033063;28;827;-57
2021/12/29 02:35:52;;;;;;;;;;;;;;;13.79;66.15;99930.88;1033011;28;807;-57
2021/12/29 02:36:46;;;;;;;;;;;;;;;13.80;65.84;99936.03;1032998;28;744;-57
2021/12/29 02:37:37;;;;;;;;;;;;;;;13.81;65.80;99926.19;1033037;28;777;-58
2021/12/29 02:38:28;;;;;;;;;;;;;;;13.81;65.24;99926.19;1033685;28;673;-58
2021/12/29 02:39:18;;;;;;;;;;;;;;;13.81;65.65;99923.50;1032959;28;924;-58
2021/12/29 02:40:09;;;;;;;;;;;;;;;13.81;65.70;99926.19;1033069;28;832;-58
2021/12/29 02:40:59;;;;;;;;;;;;;;;13.82;65.20;99927.88;1032909;28;770;-58
2021/12/29 02:41:51;;;;;;;;;;;;;;;13.81;65.81;99928.84;1034128;28;2042;-58
2021/12/29 02:42:42;;;;;;;;;;;;;;;13.80;65.68;99928.00;1033008;28;756;-58
2021/12/29 02:43:36;;;;;;;;;;;;;;;13.80;65.75;99930.69;1033606;28;666;-58
2021/12/29 02:44:29;;;;;;;;;;;;;;;13.80;65.83;99928.00;1033106;28;693;-58
2021/12/29 02:45:22;;;;;;;;;;;;;;;13.80;65.62;99937.88;1033597;28;785;-58
2021/12/29 02:46:12;;;;;;;;;;;;;;;13.79;65.76;99937.03;1033673;28;699;-58
2021/12/29 02:47:03;;;;;;;;;;;;;;;13.79;65.10;99933.53;1033203;28;748;-58
2021/12/29 02:47:53;;;;;;;;;;;;;;;13.79;66.16;99931.69;1033597;28;707;-58
2021/12/29 02:48:49;;;;;;;;;;;;;;;13.79;66.10;99928.19;1033084;28;618;-58
2021/12/29 02:49:39;;;;;;;;;;;;;;;13.78;65.45;99931.84;1033589;28;932;-58
2021/12/29 02:50:29;;;;;;;;;;;;;;;13.77;65.84;99928.31;1032987;28;665;-58
2021/12/29 02:51:20;;;;;;;;;;;;;;;13.76;65.96;99934.66;1033064;28;770;-58
2021/12/29 02:52:11;;;;;;;;;;;;;;;13.77;65.49;99932.84;1032945;28;695;-58
2021/12/29 02:53:01;;;;;;;;;;;;;;;13.78;65.21;99932.69;1033027;28;822;-58
2021/12/29 02:53:52;;;;;;;;;;;;;;;13.78;65.40;99940.72;1033103;28;807;-58
2021/12/29 02:54:42;;;;;;;;;;;;;;;13.79;65.71;99949.59;1032616;28;1978;-58
2021/12/29 02:55:33;;;;;;;;;;;;;;;13.79;65.61;99950.41;1033006;28;955;-58
2021/12/29 02:56:23;;;;;;;;;;;;;;;13.80;65.75;99943.22;1033149;28;682;-58
2021/12/29 02:57:13;;;;;;;;;;;;;;;13.80;65.79;99953.94;1033012;28;695;-58
2021/12/29 02:58:04;;;;;;;;;;;;;;;13.81;65.49;99952.97;1033542;28;730;-58
2021/12/29 02:58:54;;;;;;;;;;;;;;;13.81;65.18;99952.97;1033666;28;730;-57
2021/12/29 02:59:45;;;;;;;;;;;;;;;13.81;65.44;99945.78;1033483;28;823;-58
2021/12/29 03:00:35;;;;;;;;;;;;;;;13.82;65.94;99954.66;1033442;28;838;-58
2021/12/29 03:01:27;;;;;;;;;;;;;;;13.81;65.67;99961.00;1033541;28;712;-58
2021/12/29 03:02:18;;;;;;;;;;;;;;;13.82;65.80;99957.31;1033549;28;779;-58
2021/12/29 03:03:09;;;;;;;;;;;;;;;13.81;65.84;99964.53;1033581;28;749;-58
2021/12/29 03:03:59;;;;;;;;;;;;;;;13.82;65.47;99968.03;1033543;28;787;-58
2021/12/29 03:04:50;;;;;;;;;;;;;;;13.81;65.88;99971.69;1033609;28;700;-58
2021/12/29 03:05:40;;;;;;;;;;;;;;;13.80;65.10;99970.84;1033576;28;689;-58
2021/12/29 03:06:30;;;;;;;;;;;;;;;13.80;65.21;99975.38;1033485;28;777;-58
2021/12/29 03:07:21;;;;;;;;;;;;;;;13.81;65.72;99971.69;1033558;28;906;-58
2021/12/29 03:08:11;;;;;;;;;;;;;;;13.79;65.04;99974.53;1033534;28;789;-58
2021/12/29 03:09:02;;;;;;;;;;;;;;;13.79;65.55;99985.22;1033554;28;737;-58
2021/12/29 03:09:52;;;;;;;;;;;;;;;13.78;65.78;99972.84;1033548;28;706;-58
2021/12/29 03:10:43;;;;;;;;;;;;;;;13.78;65.91;99988.09;1033444;28;792;-58
2021/12/29 03:11:33;;;;;;;;;;;;;;;13.77;65.07;99987.22;1033568;28;1953;-60
2021/12/29 03:12:24;;;;;;;;;;;;;;;13.76;65.99;99985.53;1033495;28;910;-60
2021/12/29 03:13:14;;;;;;;;;;;;;;;13.78;66.06;99990.75;1032579;28;689;-61
2021/12/29 03:14:04;;;;;;;;;;;;;;;13.79;65.47;99995.13;1032417;28;794;-60
2021/12/29 03:14:57;;;;;;;;;;;;;;;13.78;65.94;99988.94;1033015;28;1886;-60
2021/12/29 03:15:47;;;;;;;;;;;;;;;13.79;66.07;99990.59;1033027;28;713;-60
2021/12/29 03:16:38;;;;;;;;;;;;;;;13.79;65.21;99990.59;1033083;28;1581;-61
2021/12/29 03:17:30;;;;;;;;;;;;;;;13.79;65.13;99992.44;1029623;28;974;-61
2021/12/29 03:18:20;;;;;;;;;;;;;;;13.78;65.49;99999.63;1029473;28;756;-61
2021/12/29 03:19:11;;;;;;;;;;;;;;;13.78;65.55;99996.13;1033795;28;821;-61
2021/12/29 03:20:01;;;;;;;;;;;;;;;13.79;65.49;100000.47;1032769;28;747;-61
2021/12/29 03:20:52;;;;;;;;;;;;;;;13.80;65.82;100007.50;1032746;28;731;-61
2021/12/29 03:21:44;;;;;;;;;;;;;;;13.79;65.86;100011.19;1029654;28;844;-60
2021/12/29 03:22:35;;;;;;;;;;;;;;;13.79;65.97;100012.00;1029794;28;847;-60
2021/12/29 03:23:25;;;;;;;;;;;;;;;13.79;65.68;100003.97;1029252;28;683;-60
2021/12/29 03:24:18;;;;;;;;;;;;;;;13.79;66.04;100005.84;1028592;28;931;-61
2021/12/29 03:25:09;;;;;;;;;;;;;;;13.79;65.83;100011.19;1033001;28;773;-60
2021/12/29 03:25:59;;;;;;;;;;;;;;;13.79;65.53;100008.53;1032910;28;696;-60
2021/12/29 03:26:50;;;;;;;;;;;;;;;13.79;65.56;100017.38;1034938;28;1897;-61
2021/12/29 03:27:40;;;;;;;;;;;;;;;13.80;65.36;100018.22;1033873;28;718;-60
2021/12/29 03:28:31;;;;;;;;;;;;;;;13.80;65.83;100016.38;1033727;28;661;-60
2021/12/29 03:29:21;;;;;;;;;;;;;;;13.81;65.69;100027.94;1037598;28;777;-59
2021/12/29 03:30:11;;;;;;;;;;;;;;;13.80;65.06;100027.09;1037083;28;809;-60
2021/12/29 03:31:02;;;;;;;;;;;;;;;13.80;65.14;100029.78;1037032;28;753;-60
2021/12/29 03:31:52;;;;;;;;;;;;;;;13.80;65.80;100029.78;1037794;28;704;-59
2021/12/29 03:32:50;;;;;;;;;;;;;;;13.81;65.63;100033.28;1037894;28;709;-59
2021/12/29 03:33:41;;;;;;;;;;;;;;;13.82;65.79;100040.34;1037772;28;721;-58
2021/12/29 03:34:31;;;;;;;;;;;;;;;13.81;65.50;100042.19;1037922;28;752;-59
2021/12/29 03:35:21;;;;;;;;;;;;;;;13.81;65.12;100044.00;1037832;28;811;-58
2021/12/29 03:36:12;;;;;;;;;;;;;;;13.81;65.61;100041.34;1037878;28;730;-58
2021/12/29 03:37:02;;;;;;;;;;;;;;;13.80;65.64;100045.00;1037767;28;772;-59
2021/12/29 03:37:53;;;;;;;;;;;;;;;13.81;65.22;100054.72;1037795;28;823;-58
2021/12/29 03:38:43;;;;;;;;;;;;;;;13.81;65.16;100052.03;1037915;28;838;-58
2021/12/29 03:39:38;;;;;;;;;;;;;;;13.80;65.97;100051.19;1037619;28;899;-60
2021/12/29 03:40:29;;;;;;;;;;;;;;;13.79;65.33;100060.22;1037733;28;626;-58
2021/12/29 03:41:19;;;;;;;;;;;;;;;13.79;65.91;100054.84;1038335;28;684;-58
2021/12/29 03:42:09;;;;;;;;;;;;;;;13.80;65.25;100061.06;1037775;28;698;-58
2021/12/29 03:43:00;;;;;;;;;;;;;;;13.80;65.22;100050.34;1037859;28;732;-58
2021/12/29 03:43:50;;;;;;;;;;;;;;;13.81;65.84;100054.72;1037750;28;848;-58
2021/12/29 03:44:41;;;;;;;;;;;;;;;13.81;65.30;100057.41;1037718;28;677;-58
2021/12/29 03:45:31;;;;;;;;;;;;;;;13.80;65.85;100053.03;1037698;28;673;-57
2021/12/29 03:46:23;;;;;;;;;;;;;;;13.79;65.84;100054.84;1037514;28;1249;-59
2021/12/29 03:47:14;;;;;;;;;;;;;;;13.81;65.15;100060.06;1037821;28;842;-58
2021/12/29 03:48:04;;;;;;;;;;;;;;;13.80;65.88;100061.06;1034178;28;676;-57
2021/12/29 03:48:55;;;;;;;;;;;;;;;13.80;65.15;100055.69;1033711;28;737;-57
2021/12/29 03:49:45;;;;;;;;;;;;;;;13.80;65.23;100061.06;1033726;28;703;-58
2021/12/29 03:50:35;;;;;;;;;;;;;;;13.80;65.58;100055.69;1033657;28;644;-57
2021/12/29 03:51:26;;;;;;;;;;;;;;;13.79;66.22;100060.22;1033737;28;673;-59
2021/12/29 03:52:16;;;;;;;;;;;;;;;13.80;65.19;100058.38;1033703;28;802;-58
2021/12/29 03:53:07;;;;;;;;;;;;;;;13.80;65.37;100053.03;1033707;28;833;-58
2021/12/29 03:53:58;;;;;;;;;;;;;;;13.79;65.32;100062.88;1033592;28;736;-58
2021/12/29 03:54:48;;;;;;;;;;;;;;;13.79;65.90;100060.22;1034096;28;1971;-58
2021/12/29 03:55:39;;;;;;;;;;;;;;;13.79;66.08;100064.75;1033527;28;1917;-59
2021/12/29 03:56:29;;;;;;;;;;;;;;;13.78;65.07;100063.91;1033588;28;882;-57
2021/12/29 03:57:20;;;;;;;;;;;;;;;13.79;65.86;100070.13;1033504;28;688;-58
2021/12/29 03:58:10;;;;;;;;;;;;;;;13.78;65.91;100063.91;1032940;28;648;-59
2021/12/29 03:59:01;;;;;;;;;;;;;;;13.78;65.58;100066.59;1032980;28;777;-58
2021/12/29 03:59:51;;;;;;;;;;;;;;;13.78;65.91;100063.06;1033205;28;665;-58
2021/12/29 04:00:41;;;;;;;;;;;;;;;13.79;65.94;100070.94;1032927;28;700;-58
2021/12/29 04:01:32;;;;;;;;;;;;;;;13.79;65.67;100065.56;1033744;28;771;-57
2021/12/29 04:02:22;;;;;;;;;;;;;;;13.80;65.40;100066.41;1033352;28;773;-58
2021/12/29 04:03:13;;;;;;;;;;;;;;;13.79;65.69;100062.06;1033355;28;776;-58
2021/12/29 04:04:03;;;;;;;;;;;;;;;13.80;65.46;100058.38;1033812;28;819;-58
2021/12/29 04:04:54;;;;;;;;;;;;;;;13.79;65.21;100070.13;1033052;28;796;-58
2021/12/29 04:05:44;;;;;;;;;;;;;;;13.78;65.68;100057.69;1033284;28;581;-58
2021/12/29 04:06:34;;;;;;;;;;;;;;;13.78;65.60;100061.22;1033049;28;854;-58
2021/12/29 04:07:25;;;;;;;;;;;;;;;13.77;65.73;100056.00;1033143;28;705;-58
2021/12/29 04:08:15;;;;;;;;;;;;;;;13.77;66.16;100062.22;1033258;28;704;-58
2021/12/29 04:09:06;;;;;;;;;;;;;;;13.78;66.29;100066.59;1033328;28;897;-58
2021/12/29 04:09:56;;;;;;;;;;;;;;;13.79;65.49;100059.41;1033675;28;725;-58
2021/12/29 04:10:46;;;;;;;;;;;;;;;13.78;65.53;100057.69;1033044;28;926;-58
2021/12/29 04:11:37;;;;;;;;;;;;;;;13.78;65.77;100065.75;1033151;28;911;-58
2021/12/29 04:12:27;;;;;;;;;;;;;;;13.76;65.88;100057.84;1033038;28;643;-57
2021/12/29 04:13:18;;;;;;;;;;;;;;;13.76;65.87;100065.03;1033167;28;785;-57
2021/12/29 04:14:08;;;;;;;;;;;;;;;13.76;66.02;100062.34;1033758;28;697;-57
2021/12/29 04:14:58;;;;;;;;;;;;;;;13.75;65.61;100064.19;1032923;28;1955;-58
2021/12/29 04:15:49;;;;;;;;;;;;;;;13.76;65.49;100067.72;1037133;28;1787;-57
2021/12/29 04:16:45;;;;;;;;;;;;;;;13.76;65.73;100060.53;1037613;28;618;-58
2021/12/29 04:17:38;;;;;;;;;;;;;;;13.76;66.34;100068.56;1036878;28;1953;-58
2021/12/29 04:18:30;;;;;;;;;;;;;;;13.75;66.34;100069.53;1037631;28;693;-57
2021/12/29 04:19:40;;;;;;;;;;;;;;;13.76;65.58;100075.75;1037681;28;961;-58
2021/12/29 04:21:39;;;;;;;;;;;;;;;13.76;65.97;100076.59;1034681;28;971;-58
2021/12/29 04:22:30;;;;;;;;;;;;;;;13.75;65.61;100074.03;1033192;28;855;-57
2021/12/29 04:23:20;;;;;;;;;;;;;;;13.74;65.54;100072.34;1032955;28;808;-58
2021/12/29 04:24:11;;;;;;;;;;;;;;;13.74;65.43;100075.88;1033085;28;698;-58
2021/12/29 04:25:01;;;;;;;;;;;;;;;13.76;66.04;100073.91;1033176;28;712;-58
2021/12/29 04:25:54;;;;;;;;;;;;;;;13.76;65.75;100070.38;1033044;28;723;-58
2021/12/29 04:26:44;;;;;;;;;;;;;;;13.76;65.49;100070.38;1033205;28;661;-58
2021/12/29 04:27:34;;;;;;;;;;;;;;;13.76;66.19;100073.06;1032931;28;854;-58
2021/12/29 04:28:26;;;;;;;;;;;;;;;13.76;65.52;100067.72;1033141;28;697;-58
2021/12/29 04:29:16;;;;;;;;;;;;;;;13.76;65.48;100062.34;1032855;28;746;-58
2021/12/29 04:30:07;;;;;;;;;;;;;;;13.77;65.84;100067.56;1033016;28;707;-57
2021/12/29 04:30:57;;;;;;;;;;;;;;;13.78;66.30;100077.28;1033119;28;793;-57
2021/12/29 04:31:47;;;;;;;;;;;;;;;13.78;65.55;100073.78;1032871;28;778;-56
2021/12/29 04:32:38;;;;;;;;;;;;;;;13.76;65.93;100076.59;1033109;28;692;-57